Time;durP1;ratioP1;P1;durP2;ratioP2;P2;SDS_P1;SDS_P2;PMS_P1;PMS_P2;Temp;Humidity;BMP_temperature;BMP_pressure;BME280_temperature;BME280_humidity;BME280_pressure;Samples;Min_cycle;Max_cycle;Signal;HPM_P1;HPM_P2
2022/11/21 11:24:36;;;;;;;19.52;8.50;;;;;;;;;;5014182;28;20061;-94
2022/11/21 11:27:08;;;;;;;20.98;8.98;;;;;;;;;;4995554;28;20062;-93
2022/11/21 11:29:49;;;;;;;22.33;9.18;;;;;;;;;;4993443;28;20072;-95
2022/11/21 11:32:18;;;;;;;16.98;8.48;;;;;;;;;;5009447;28;20076;-94
2022/11/21 11:34:59;;;;;;;18.98;8.90;;;;;;;;;;4995882;28;20404;-94
2022/11/21 11:37:41;;;;;;;21.90;9.32;;;;;;;;;;5012602;28;20052;-93
2022/11/21 11:40:20;;;;;;;21.05;8.50;;;;;;;;;;4997577;28;20045;-94
2022/11/21 11:53:10;;;;;;;20.50;7.28;;;;;;;;;;5016417;28;20073;-94
2022/11/21 11:55:43;;;;;;;20.08;8.43;;;;;;;;;;5029245;28;20044;-94
2022/11/21 11:58:32;;;;;;;19.35;9.73;;;;;;;;;;5032039;28;20053;-93
2022/11/21 12:01:11;;;;;;;16.33;7.20;;;;;;;;;;5015156;28;20045;-93
2022/11/21 12:04:20;;;;;;;15.77;7.43;;;;;;;;;;5018638;28;20049;-94
2022/11/21 12:06:55;;;;;;;19.02;7.93;;;;;;;;;;5016101;28;20148;-94
2022/11/21 12:10:19;;;;;;;12.48;5.72;;;;;;;;;;5022416;28;20041;-94
2022/11/21 12:12:51;;;;;;;15.93;7.05;;;;;;;;;;5007196;28;20062;-94
2022/11/21 12:15:49;;;;;;;18.20;8.38;;;;;;;;;;5004933;28;20038;-94
2022/11/21 12:18:18;;;;;;;18.70;7.95;;;;;;;;;;5007688;28;20054;-94
2022/11/21 12:20:56;;;;;;;17.73;8.85;;;;;;;;;;4978367;28;20415;-91
2022/11/21 12:23:29;;;;;;;17.00;7.88;;;;;;;;;;4990894;28;20058;-92
2022/11/21 12:26:37;;;;;;;18.33;8.55;;;;;;;;;;5005028;28;20049;-91
2022/11/21 12:29:59;;;;;;;14.57;6.72;;;;;;;;;;4999645;28;20404;-91
2022/11/21 12:32:55;;;;;;;15.32;7.35;;;;;;;;;;4922817;29;20060;-91
2022/11/21 12:35:35;;;;;;;17.98;7.65;;;;;;;;;;4942748;29;21864;-91
2022/11/21 12:38:31;;;;;;;13.98;6.50;;;;;;;;;;4919748;29;20102;-91
2022/11/21 12:45:00;;;;;;;13.43;6.25;;;;;;;;;;4941521;29;20143;-91
2022/11/21 12:57:10;;;;;;;14.75;6.65;;;;;;;;;;4919917;29;20052;-94
2022/11/21 13:00:06;;;;;;;14.95;6.55;;;;;;;;;;4948205;29;20545;-96
2022/11/21 13:03:17;;;;;;;15.40;6.65;;;;;;;;;;4924998;29;20083;-93
2022/11/21 13:06:40;;;;;;;12.27;6.18;;;;;;;;;;4939055;29;20043;-95
2022/11/21 13:09:13;;;;;;;16.33;6.75;;;;;;;;;;4949228;28;20057;-93
2022/11/21 13:11:58;;;;;;;15.88;6.45;;;;;;;;;;5022965;28;20060;-92
2022/11/21 13:14:45;;;;;;;12.90;5.88;;;;;;;;;;5007659;28;20034;-92
2022/11/21 13:17:12;;;;;;;12.15;6.20;;;;;;;;;;5014764;28;20523;-92
2022/11/21 13:19:52;;;;;;;16.42;6.50;;;;;;;;;;4998742;28;20065;-93
2022/11/21 13:22:35;;;;;;;13.73;6.55;;;;;;;;;;5014457;28;20046;-93
2022/11/21 13:25:29;;;;;;;13.48;6.07;;;;;;;;;;4997080;28;20038;-93
2022/11/21 13:28:16;;;;;;;16.25;7.20;;;;;;;;;;4994017;28;20057;-93
2022/11/21 13:30:51;;;;;;;12.90;6.45;;;;;;;;;;5013055;28;20058;-93
2022/11/21 13:33:35;;;;;;;15.73;7.28;;;;;;;;;;4997770;28;20042;-94
2022/11/21 13:36:11;;;;;;;14.18;6.53;;;;;;;;;;5007532;28;20080;-93
2022/11/21 13:38:52;;;;;;;13.15;6.07;;;;;;;;;;4995974;28;20056;-93
2022/11/21 13:44:31;;;;;;;12.20;6.10;;;;;;;;;;5011291;28;20075;-93
2022/11/21 13:47:08;;;;;;;11.48;5.30;;;;;;;;;;4975104;28;20073;-93
2022/11/21 13:49:54;;;;;;;14.25;6.15;;;;;;;;;;4996656;28;20504;-93
2022/11/21 13:52:34;;;;;;;13.88;6.68;;;;;;;;;;5011803;28;20515;-93
2022/11/21 13:55:38;;;;;;;15.43;5.90;;;;;;;;;;4996499;28;20049;-93
2022/11/21 13:58:43;;;;;;;13.43;5.53;;;;;;;;;;5006243;28;20125;-93
2022/11/21 14:01:39;;;;;;;12.07;5.72;;;;;;;;;;4994563;28;20064;-93
2022/11/21 14:04:18;;;;;;;15.10;6.15;;;;;;;;;;4977254;28;20081;-93
2022/11/21 14:07:36;;;;;;;13.80;5.05;;;;;;;;;;4979603;28;20492;-93
2022/11/21 14:10:24;;;;;;;13.30;5.05;;;;;;;;;;4979010;28;20538;-92
2022/11/21 14:12:54;;;;;;;11.77;5.40;;;;;;;;;;4996056;28;20054;-93
2022/11/21 14:15:46;;;;;;;10.20;5.05;;;;;;;;;;4996925;28;20038;-93
2022/11/21 14:18:23;;;;;;;9.88;4.57;;;;;;;;;;4963622;28;20064;-93
2022/11/21 14:20:59;;;;;;;12.15;5.13;;;;;;;;;;4982866;28;20161;-93
2022/11/21 14:23:43;;;;;;;10.68;4.72;;;;;;;;;;4996168;28;20050;-93
2022/11/21 14:26:20;;;;;;;11.32;5.40;;;;;;;;;;4993672;28;20076;-92
2022/11/21 14:28:48;;;;;;;9.65;4.30;;;;;;;;;;5015016;28;20600;-93
2022/11/21 14:31:16;;;;;;;12.95;5.78;;;;;;;;;;5025934;28;20058;-93
2022/11/21 14:33:45;;;;;;;20.42;7.20;;;;;;;;;;5024115;28;20049;-93
2022/11/21 14:36:25;;;;;;;20.65;7.20;;;;;;;;;;5009661;28;20171;-93
2022/11/21 14:38:57;;;;;;;15.57;5.97;;;;;;;;;;5002757;28;21986;-94
2022/11/21 14:41:56;;;;;;;19.65;6.57;;;;;;;;;;4965236;28;20054;-93
2022/11/21 14:44:24;;;;;;;14.63;5.78;;;;;;;;;;4971918;28;20126;-93
2022/11/21 14:47:11;;;;;;;12.95;5.60;;;;;;;;;;4977498;28;20054;-93
2022/11/21 14:49:51;;;;;;;12.93;5.90;;;;;;;;;;5026149;28;20046;-91
2022/11/21 14:52:29;;;;;;;11.13;5.30;;;;;;;;;;4992417;28;20161;-93
2022/11/21 14:55:00;;;;;;;11.43;5.05;;;;;;;;;;4963518;28;20046;-92
2022/11/21 14:57:48;;;;;;;10.65;4.72;;;;;;;;;;4985774;28;20046;-92
2022/11/21 15:00:26;;;;;;;12.05;5.18;;;;;;;;;;4988329;28;20058;-93
2022/11/21 15:03:38;;;;;;;9.90;4.47;;;;;;;;;;5009930;28;20054;-92
2022/11/21 15:06:39;;;;;;;11.63;4.88;;;;;;;;;;4975899;28;20070;-92
2022/11/21 15:09:12;;;;;;;12.43;5.25;;;;;;;;;;4985713;28;20068;-92
2022/11/21 15:12:09;;;;;;;16.73;7.18;;;;;;;;;;5005537;28;20046;-92
2022/11/21 15:14:45;;;;;;;14.50;6.75;;;;;;;;;;5010363;28;20496;-92
2022/11/21 15:17:19;;;;;;;15.38;5.78;;;;;;;;;;5024656;28;20133;-93
2022/11/21 15:20:16;;;;;;;14.38;5.50;;;;;;;;;;5021308;28;20057;-92
2022/11/21 15:22:45;;;;;;;10.38;5.22;;;;;;;;;;5007600;28;20772;-93
2022/11/21 15:25:16;;;;;;;10.57;5.63;;;;;;;;;;4976837;28;20132;-89
2022/11/21 15:28:08;;;;;;;11.18;5.35;;;;;;;;;;5008070;28;20073;-88
2022/11/21 15:30:36;;;;;;;13.15;6.15;;;;;;;;;;5019463;28;20141;-89
2022/11/21 15:33:08;;;;;;;13.23;5.57;;;;;;;;;;5010982;28;20054;-89
2022/11/21 15:35:42;;;;;;;14.02;5.85;;;;;;;;;;4988126;28;20158;-89
2022/11/21 15:38:40;;;;;;;11.85;5.28;;;;;;;;;;5005713;28;20053;-89
2022/11/21 15:41:08;;;;;;;10.05;5.10;;;;;;;;;;5003888;28;20505;-89
2022/11/21 15:43:53;;;;;;;14.52;5.03;;;;;;;;;;4994083;28;20120;-89
2022/11/21 15:46:40;;;;;;;12.32;5.80;;;;;;;;;;4988192;28;20038;-90
2022/11/21 15:49:18;;;;;;;10.90;5.43;;;;;;;;;;4991249;28;20458;-89
2022/11/21 15:52:10;;;;;;;15.18;5.63;;;;;;;;;;4978672;28;20052;-89
2022/11/21 15:54:38;;;;;;;14.98;6.63;;;;;;;;;;4957178;28;20550;-89
2022/11/21 15:57:07;;;;;;;16.02;6.43;;;;;;;;;;4991516;28;20046;-89
2022/11/21 15:59:36;;;;;;;16.35;6.85;;;;;;;;;;4962252;28;20055;-90
2022/11/21 16:02:12;;;;;;;12.25;6.10;;;;;;;;;;5019801;28;20057;-89
2022/11/21 16:04:41;;;;;;;13.02;6.15;;;;;;;;;;5002461;28;20045;-90
2022/11/21 16:07:08;;;;;;;13.77;6.07;;;;;;;;;;5000020;28;20660;-90
2022/11/21 16:09:41;;;;;;;12.20;5.57;;;;;;;;;;5004627;28;20065;-90
2022/11/21 16:12:15;;;;;;;14.38;5.88;;;;;;;;;;4983740;28;20108;-90
2022/11/21 16:14:42;;;;;;;13.25;6.18;;;;;;;;;;4994220;28;20066;-90
2022/11/21 16:17:34;;;;;;;13.10;5.95;;;;;;;;;;5026664;28;20076;-89
2022/11/21 16:20:02;;;;;;;10.05;5.18;;;;;;;;;;4982140;28;20053;-90
2022/11/21 16:22:30;;;;;;;9.75;4.82;;;;;;;;;;5014829;28;20054;-89
2022/11/21 16:24:58;;;;;;;14.82;6.07;;;;;;;;;;5013614;28;20048;-90
2022/11/21 16:27:26;;;;;;;11.35;5.18;;;;;;;;;;4996591;28;20046;-89
2022/11/21 16:30:00;;;;;;;13.02;5.25;;;;;;;;;;4991924;28;20140;-89
2022/11/21 16:32:28;;;;;;;11.52;5.50;;;;;;;;;;4996359;28;20050;-89
2022/11/21 16:34:59;;;;;;;12.40;5.95;;;;;;;;;;5011620;28;20526;-89
2022/11/21 16:37:30;;;;;;;8.77;4.72;;;;;;;;;;5013392;28;20081;-88
2022/11/21 16:40:04;;;;;;;11.48;5.25;;;;;;;;;;4992052;28;20045;-89
2022/11/21 16:43:08;;;;;;;10.25;4.88;;;;;;;;;;5006512;28;20049;-89
2022/11/21 16:45:42;;;;;;;11.27;4.40;;;;;;;;;;4965001;28;20046;-89
2022/11/21 16:48:14;;;;;;;12.82;5.53;;;;;;;;;;4994033;28;20129;-89
2022/11/21 16:50:42;;;;;;;12.40;5.25;;;;;;;;;;4983822;28;20538;-89
2022/11/21 16:53:09;;;;;;;9.68;4.72;;;;;;;;;;4996657;28;20069;-89
2022/11/21 16:58:32;;;;;;;15.10;5.43;;;;;;;;;;4997868;28;20089;-89
2022/11/21 17:01:11;;;;;;;14.45;5.60;;;;;;;;;;4981002;28;20440;-89
2022/11/21 17:03:41;;;;;;;12.25;5.72;;;;;;;;;;4997693;28;20078;-89
2022/11/21 17:06:11;;;;;;;12.13;6.10;;;;;;;;;;4992717;28;20046;-88
2022/11/21 17:09:04;;;;;;;11.32;4.75;;;;;;;;;;5011169;28;20110;-89
2022/11/21 17:11:32;;;;;;;12.80;5.75;;;;;;;;;;4996515;28;20050;-89
2022/11/21 17:14:03;;;;;;;12.57;5.38;;;;;;;;;;4981313;28;20500;-89
2022/11/21 17:16:55;;;;;;;11.35;4.70;;;;;;;;;;4998649;28;20085;-89
2022/11/21 17:19:48;;;;;;;10.93;4.93;;;;;;;;;;4974908;28;20061;-90
2022/11/21 17:22:16;;;;;;;12.57;5.72;;;;;;;;;;4996045;28;20050;-90
2022/11/21 17:24:52;;;;;;;15.95;6.15;;;;;;;;;;4994166;28;20406;-89
2022/11/21 17:27:26;;;;;;;10.68;4.90;;;;;;;;;;4993956;28;20081;-90
2022/11/21 17:29:54;;;;;;;17.63;6.93;;;;;;;;;;4986810;28;20042;-91
2022/11/21 17:32:22;;;;;;;15.75;6.07;;;;;;;;;;5005748;28;20077;-90
2022/11/21 17:34:50;;;;;;;17.27;5.80;;;;;;;;;;5011300;28;20060;-90
2022/11/21 17:37:18;;;;;;;10.60;5.97;;;;;;;;;;4958921;28;20507;-91
2022/11/21 17:39:46;;;;;;;14.02;7.10;;;;;;;;;;5008238;28;20064;-91
2022/11/21 17:42:14;;;;;;;14.18;6.97;;;;;;;;;;4991331;28;20060;-90
2022/11/21 17:44:46;;;;;;;11.43;6.15;;;;;;;;;;5023147;28;20570;-91
2022/11/21 17:47:41;;;;;;;14.98;6.80;;;;;;;;;;5007582;28;20379;-91
2022/11/21 17:50:08;;;;;;;15.35;6.65;;;;;;;;;;4974493;28;20142;-91
2022/11/21 17:52:36;;;;;;;19.58;7.57;;;;;;;;;;4976982;28;20050;-91
2022/11/21 17:55:04;;;;;;;14.90;6.95;;;;;;;;;;5008897;28;20407;-91
2022/11/21 17:57:32;;;;;;;18.50;7.20;;;;;;;;;;4991315;28;20053;-90
2022/11/21 18:00:00;;;;;;;14.00;6.50;;;;;;;;;;4993215;28;20060;-90
2022/11/21 18:02:28;;;;;;;16.33;7.72;;;;;;;;;;5011986;28;20488;-91
2022/11/21 18:04:56;;;;;;;15.95;7.72;;;;;;;;;;4958535;28;20054;-90
2022/11/21 18:07:24;;;;;;;16.23;6.75;;;;;;;;;;4997558;28;20050;-90
2022/11/21 18:09:52;;;;;;;18.20;7.30;;;;;;;;;;4991340;28;20049;-90
2022/11/21 18:12:20;;;;;;;18.08;7.47;;;;;;;;;;4993873;28;20054;-89
2022/11/21 18:14:52;;;;;;;21.90;8.75;;;;;;;;;;4998065;28;20089;-91
2022/11/21 18:17:22;;;;;;;19.58;7.57;;;;;;;;;;4998583;28;20048;-91
2022/11/21 18:19:50;;;;;;;17.77;8.02;;;;;;;;;;5003604;28;20046;-91
2022/11/21 18:22:42;;;;;;;20.42;8.10;;;;;;;;;;4990436;28;20054;-91
2022/11/21 18:25:35;;;;;;;22.73;9.05;;;;;;;;;;4979116;28;20123;-90
2022/11/21 18:28:04;;;;;;;25.17;9.52;;;;;;;;;;5010103;28;20045;-90
2022/11/21 18:30:32;;;;;;;23.63;10.07;;;;;;;;;;4988009;28;20511;-91
2022/11/21 18:33:00;;;;;;;23.80;9.40;;;;;;;;;;5006944;28;20061;-90
2022/11/21 18:35:28;;;;;;;24.30;10.05;;;;;;;;;;4991380;28;20046;-90
2022/11/21 18:37:57;;;;;;;23.85;9.80;;;;;;;;;;5005770;28;20049;-92
2022/11/21 18:40:24;;;;;;;25.13;10.35;;;;;;;;;;4980526;28;20389;-90
2022/11/21 18:42:52;;;;;;;25.95;10.55;;;;;;;;;;5001664;28;20057;-90
2022/11/21 18:45:46;;;;;;;28.98;11.15;;;;;;;;;;4991600;28;20050;-91
2022/11/21 18:48:24;;;;;;;26.15;9.65;;;;;;;;;;4965744;28;20061;-91
2022/11/21 18:50:52;;;;;;;23.73;10.25;;;;;;;;;;4993079;28;20140;-90
2022/11/21 18:53:20;;;;;;;28.65;10.32;;;;;;;;;;4988762;28;21063;-90
2022/11/21 18:55:47;;;;;;;24.65;9.52;;;;;;;;;;5010782;28;20053;-91
2022/11/21 18:58:16;;;;;;;23.73;10.02;;;;;;;;;;4994797;28;20428;-91
2022/11/21 19:01:14;;;;;;;29.25;10.30;;;;;;;;;;5006693;28;20050;-90
2022/11/21 19:03:42;;;;;;;24.35;9.80;;;;;;;;;;4960870;28;20054;-92
2022/11/21 19:06:36;;;;;;;28.60;11.10;;;;;;;;;;5012495;28;20176;-92
2022/11/21 19:09:04;;;;;;;25.23;10.35;;;;;;;;;;4995524;28;20050;-93
2022/11/21 19:11:32;;;;;;;25.25;9.85;;;;;;;;;;5010826;28;20129;-91
2022/11/21 19:14:00;;;;;;;25.83;9.90;;;;;;;;;;4994761;28;20058;-91
2022/11/21 19:16:52;;;;;;;27.73;10.32;;;;;;;;;;5009886;28;20046;-91
2022/11/21 19:19:24;;;;;;;24.90;10.75;;;;;;;;;;4993876;28;20069;-91
2022/11/21 19:22:12;;;;;;;22.67;8.57;;;;;;;;;;4992533;28;20049;-91
2022/11/21 19:24:40;;;;;;;21.50;9.98;;;;;;;;;;4978809;28;20053;-93
2022/11/21 19:27:08;;;;;;;22.27;9.55;;;;;;;;;;4993138;28;20043;-92
2022/11/21 19:29:40;;;;;;;22.17;9.88;;;;;;;;;;5008018;28;20060;-91
2022/11/21 19:35:05;;;;;;;22.77;9.50;;;;;;;;;;5004274;28;20061;-91
2022/11/21 19:37:32;;;;;;;24.42;10.20;;;;;;;;;;4992063;28;20058;-91
2022/11/21 19:41:11;;;;;;;20.27;8.55;;;;;;;;;;4990784;28;20140;-91
2022/11/21 19:43:14;;;;;;;22.42;9.77;;;;;;;;;;5006364;28;20419;-91
2022/11/21 19:46:04;;;;;;;12.75;5.85;;;;;;;;;;4996625;28;20042;-91
2022/11/21 19:48:32;;;;;;;25.23;10.32;;;;;;;;;;4996310;28;20042;-91
2022/11/21 19:51:01;;;;;;;15.90;7.55;;;;;;;;;;5004729;28;20081;-92
2022/11/21 19:53:36;;;;;;;21.00;7.90;;;;;;;;;;4995114;28;20054;-91
2022/11/21 19:56:28;;;;;;;18.35;8.13;;;;;;;;;;4978092;28;20056;-91
2022/11/21 19:58:56;;;;;;;21.67;7.88;;;;;;;;;;4989084;28;20120;-92
2022/11/21 20:01:30;;;;;;;20.55;9.27;;;;;;;;;;5021554;28;20050;-91
2022/11/21 20:04:00;;;;;;;20.55;7.80;;;;;;;;;;4987925;28;20054;-92
2022/11/21 20:06:29;;;;;;;5.63;3.58;;;;;;;;;;4990419;28;20076;-92
2022/11/21 20:09:15;;;;;;;22.13;9.07;;;;;;;;;;4992282;28;20547;-93
2022/11/21 20:11:46;;;;;;;16.75;7.07;;;;;;;;;;5004447;28;20427;-92
2022/11/21 20:14:17;;;;;;;21.35;8.43;;;;;;;;;;4978630;28;20069;-93
2022/11/21 20:16:51;;;;;;;20.73;7.60;;;;;;;;;;5018984;28;20046;-92
2022/11/21 20:20:08;;;;;;;16.77;7.53;;;;;;;;;;4981589;28;20050;-92
2022/11/21 20:22:42;;;;;;;16.92;7.53;;;;;;;;;;4975904;28;20168;-92
2022/11/21 20:25:10;;;;;;;17.15;8.10;;;;;;;;;;4995553;28;20416;-93
2022/11/21 20:28:02;;;;;;;20.35;7.68;;;;;;;;;;5000125;28;20141;-91
2022/11/21 20:30:38;;;;;;;16.00;7.30;;;;;;;;;;4994691;28;20065;-92
2022/11/21 20:33:10;;;;;;;17.95;8.02;;;;;;;;;;4992371;28;20140;-91
2022/11/21 20:35:38;;;;;;;17.02;7.32;;;;;;;;;;4996119;28;20045;-92
2022/11/21 20:38:12;;;;;;;16.00;7.97;;;;;;;;;;4980326;28;20064;-91
2022/11/21 20:40:39;;;;;;;17.67;7.47;;;;;;;;;;4967940;28;20559;-91
2022/11/21 20:43:32;;;;;;;17.05;7.63;;;;;;;;;;5026208;28;20049;-91
2022/11/21 20:46:46;;;;;;;16.05;7.18;;;;;;;;;;4994572;28;20135;-92
2022/11/21 20:49:14;;;;;;;18.92;8.90;;;;;;;;;;5014840;28;20052;-91
2022/11/21 20:51:42;;;;;;;18.27;8.20;;;;;;;;;;5018341;28;20058;-91
2022/11/21 20:54:37;;;;;;;18.27;8.00;;;;;;;;;;4991036;28;20558;-91
2022/11/21 20:57:08;;;;;;;20.80;8.20;;;;;;;;;;4986318;28;20053;-92
2022/11/21 20:59:46;;;;;;;18.88;8.32;;;;;;;;;;4977087;28;20058;-94
2022/11/21 21:02:14;;;;;;;18.77;7.97;;;;;;;;;;4991215;28;20045;-95
2022/11/21 21:04:42;;;;;;;17.27;6.90;;;;;;;;;;4977733;28;20060;-93
2022/11/21 21:07:10;;;;;;;24.30;9.52;;;;;;;;;;4994614;28;20505;-91
2022/11/21 21:09:38;;;;;;;16.80;8.13;;;;;;;;;;5003603;28;20164;-93
2022/11/21 21:12:06;;;;;;;17.98;7.25;;;;;;;;;;4987974;28;20104;-92
2022/11/21 21:14:34;;;;;;;19.63;8.48;;;;;;;;;;5007913;28;20499;-92
2022/11/21 21:17:02;;;;;;;15.93;7.30;;;;;;;;;;4976152;28;20050;-93
2022/11/21 21:19:30;;;;;;;20.08;8.13;;;;;;;;;;4990659;28;20049;-93
2022/11/21 21:22:03;;;;;;;16.63;8.15;;;;;;;;;;4977209;28;20045;-93
2022/11/21 21:24:32;;;;;;;20.73;8.63;;;;;;;;;;5002949;28;20049;-92
2022/11/21 21:27:00;;;;;;;19.35;8.25;;;;;;;;;;4973280;28;20620;-92
2022/11/21 21:29:52;;;;;;;19.50;7.65;;;;;;;;;;5022825;28;20119;-93
2022/11/21 21:32:44;;;;;;;19.85;7.70;;;;;;;;;;4997259;28;20104;-93
2022/11/21 21:35:18;;;;;;;20.38;8.82;;;;;;;;;;4974920;28;20054;-91
2022/11/21 21:37:51;;;;;;;17.85;8.10;;;;;;;;;;5021334;28;20052;-91
2022/11/21 21:41:12;;;;;;;19.00;8.30;;;;;;;;;;4990500;28;20235;-92
2022/11/21 21:43:40;;;;;;;15.90;6.90;;;;;;;;;;5010189;28;20077;-91
2022/11/21 21:46:10;;;;;;;18.77;8.68;;;;;;;;;;4974189;28;20050;-93
2022/11/21 21:48:45;;;;;;;17.23;7.78;;;;;;;;;;4990643;28;20056;-92
2022/11/21 21:51:16;;;;;;;19.33;8.35;;;;;;;;;;4983344;28;20041;-92
2022/11/21 21:54:17;;;;;;;17.67;7.47;;;;;;;;;;4992813;28;20038;-92
2022/11/21 21:57:14;;;;;;;17.48;8.15;;;;;;;;;;5004453;28;20045;-93
2022/11/21 22:00:08;;;;;;;21.23;8.40;;;;;;;;;;4995175;28;20041;-92
2022/11/21 22:02:38;;;;;;;19.40;7.75;;;;;;;;;;4974605;28;20050;-92
2022/11/21 22:05:06;;;;;;;13.75;6.57;;;;;;;;;;4993949;28;20554;-91
2022/11/21 22:07:34;;;;;;;17.80;8.57;;;;;;;;;;4989680;28;20042;-91
2022/11/21 22:10:06;;;;;;;24.30;7.93;;;;;;;;;;4992263;28;20101;-92
2022/11/21 22:12:33;;;;;;;18.67;8.48;;;;;;;;;;5010152;28;20077;-92
2022/11/21 22:15:10;;;;;;;20.67;7.50;;;;;;;;;;5009836;28;20050;-92
2022/11/21 22:17:43;;;;;;;21.75;7.57;;;;;;;;;;5023577;28;20046;-92
2022/11/21 22:20:10;;;;;;;17.20;8.05;;;;;;;;;;4979989;28;20577;-92
2022/11/21 22:22:37;;;;;;;17.08;8.52;;;;;;;;;;4993612;28;20108;-91
2022/11/21 22:25:06;;;;;;;19.02;8.05;;;;;;;;;;4977596;28;20061;-93
2022/11/21 22:27:34;;;;;;;17.42;7.10;;;;;;;;;;4995787;28;20050;-91
2022/11/21 22:30:09;;;;;;;9.32;5.53;;;;;;;;;;4990469;28;20050;-92
2022/11/21 22:32:42;;;;;;;13.98;7.13;;;;;;;;;;4993713;28;20050;-93
2022/11/21 22:35:09;;;;;;;18.25;7.95;;;;;;;;;;5002430;28;20042;-93
2022/11/21 22:37:38;;;;;;;16.40;7.50;;;;;;;;;;5010888;28;20260;-92
2022/11/21 22:40:06;;;;;;;17.88;7.20;;;;;;;;;;4979657;28;20054;-93
2022/11/21 22:42:34;;;;;;;19.27;7.85;;;;;;;;;;4978510;28;20064;-92
2022/11/21 22:45:02;;;;;;;16.00;6.55;;;;;;;;;;4995988;28;20537;-92
2022/11/21 22:47:30;;;;;;;14.70;7.45;;;;;;;;;;4992905;28;20042;-93
2022/11/21 22:50:21;;;;;;;7.78;4.72;;;;;;;;;;4976004;28;20046;-92
2022/11/21 22:52:50;;;;;;;17.77;7.32;;;;;;;;;;4990705;28;20046;-93
2022/11/21 22:55:22;;;;;;;17.98;7.40;;;;;;;;;;5011043;28;20096;-92
2022/11/21 22:57:50;;;;;;;18.25;8.13;;;;;;;;;;4983099;28;20050;-91
2022/11/21 23:00:18;;;;;;;20.98;8.57;;;;;;;;;;4996255;28;20054;-92
2022/11/21 23:02:50;;;;;;;16.73;6.85;;;;;;;;;;4995188;28;20052;-92
2022/11/21 23:05:18;;;;;;;20.73;8.00;;;;;;;;;;4996668;28;20054;-92
2022/11/21 23:08:10;;;;;;;19.63;7.90;;;;;;;;;;5012981;28;20049;-92
2022/11/21 23:10:38;;;;;;;16.17;7.38;;;;;;;;;;5008664;28;20057;-93
2022/11/21 23:13:06;;;;;;;13.75;5.50;;;;;;;;;;5009304;28;20496;-92
2022/11/21 23:15:34;;;;;;;26.02;6.25;;;;;;;;;;4996573;28;20057;-93
2022/11/21 23:18:06;;;;;;;16.60;7.05;;;;;;;;;;4993902;28;20057;-94
2022/11/21 23:20:34;;;;;;;21.88;8.38;;;;;;;;;;4982981;28;20045;-92
2022/11/21 23:23:06;;;;;;;16.83;7.70;;;;;;;;;;5015959;28;20145;-92
2022/11/21 23:25:39;;;;;;;19.05;7.50;;;;;;;;;;4979363;28;20049;-92
2022/11/21 23:28:06;;;;;;;23.20;9.63;;;;;;;;;;4994765;28;20125;-92
2022/11/21 23:33:26;;;;;;;19.02;7.75;;;;;;;;;;5027157;28;20508;-92
2022/11/21 23:36:18;;;;;;;15.95;6.13;;;;;;;;;;4998911;28;20130;-92
2022/11/21 23:38:45;;;;;;;20.52;7.35;;;;;;;;;;4995410;28;20058;-92
2022/11/21 23:41:14;;;;;;;18.52;7.93;;;;;;;;;;4976365;28;20058;-92
2022/11/21 23:43:42;;;;;;;10.88;5.00;;;;;;;;;;5013929;28;20112;-93
2022/11/21 23:46:10;;;;;;;20.58;8.02;;;;;;;;;;5029404;28;20056;-92
2022/11/21 23:49:02;;;;;;;19.58;8.45;;;;;;;;;;5025985;28;20054;-92
2022/11/21 23:51:34;;;;;;;17.23;7.05;;;;;;;;;;5016264;28;20062;-92
2022/11/21 23:54:02;;;;;;;18.10;8.20;;;;;;;;;;5000568;28;20387;-92
2022/11/21 23:56:54;;;;;;;9.50;4.68;;;;;;;;;;5006446;28;20037;-92
2022/11/21 23:59:22;;;;;;;21.45;9.13;;;;;;;;;;4999924;28;20056;-91
